Time;durP1;ratioP1;P1;durP2;ratioP2;P2;SDS_P1;SDS_P2;PMS_P1;PMS_P2;Temp;Humidity;BMP_temperature;BMP_pressure;BME280_temperature;BME280_humidity;BME280_pressure;Samples;Min_cycle;Max_cycle;Signal;HPM_P1;HPM_P2
2021/10/18 00:01:59;;;;;;;1.27;1.20;;;12.30;99.90;;;;;;5033246;28;20508;-65
2021/10/18 00:04:25;;;;;;;1.03;1.03;;;12.30;99.90;;;;;;5033166;28;20228;-65
2021/10/18 00:06:51;;;;;;;0.87;0.57;;;12.20;99.90;;;;;;5033159;28;20510;-65
2021/10/18 00:09:16;;;;;;;0.30;0.20;;;12.30;99.90;;;;;;5032642;28;20745;-65
2021/10/18 00:11:42;;;;;;;0.97;0.97;;;12.40;99.90;;;;;;5032008;28;20513;-63
2021/10/18 00:14:08;;;;;;;0.30;0.20;;;12.50;1.00;;;;;;5033155;28;20347;-63
2021/10/18 00:16:38;;;;;;;1.35;0.57;;;12.60;1.00;;;;;;5032973;28;20181;-63
2021/10/18 00:19:05;;;;;;;0.40;0.40;;;12.40;1.00;;;;;;5032924;28;20174;-63
2021/10/18 00:21:30;;;;;;;1.02;0.93;;;12.40;1.00;;;;;;5033119;28;20196;-65
2021/10/18 00:23:56;;;;;;;0.50;0.50;;;12.20;99.90;;;;;;5034944;28;20592;-62
2021/10/18 00:26:21;;;;;;;0.30;0.20;;;12.30;99.90;;;;;;5036242;28;20482;-64
2021/10/18 00:28:47;;;;;;;0.30;0.20;;;12.30;99.90;;;;;;5036703;28;20232;-63
2021/10/18 00:31:13;;;;;;;0.63;0.47;;;12.40;99.90;;;;;;5036461;28;20189;-63
2021/10/18 00:33:38;;;;;;;0.30;0.20;;;12.30;99.90;;;;;;5036538;28;20173;-63
2021/10/18 00:36:04;;;;;;;1.67;1.60;;;12.20;99.90;;;;;;5036552;28;20504;-63
2021/10/18 00:38:30;;;;;;;0.80;0.70;;;12.20;1.00;;;;;;5036244;28;20174;-63
2021/10/18 00:40:55;;;;;;;0.90;0.90;;;12.20;1.00;;;;;;5036301;28;20589;-64
2021/10/18 00:43:22;;;;;;;0.40;0.23;;;12.30;99.90;;;;;;5036407;28;20205;-63
2021/10/18 00:45:48;;;;;;;0.57;0.57;;;12.50;1.00;;;;;;5035358;28;20182;-64
2021/10/18 00:48:13;;;;;;;0.30;0.20;;;12.40;1.00;;;;;;5035033;28;20264;-62
2021/10/18 00:50:39;;;;;;;0.53;0.53;;;12.40;1.00;;;;;;5037834;28;20178;-65
2021/10/18 00:53:05;;;;;;;0.30;0.20;;;12.30;1.00;;;;;;5036127;28;20196;-65
2021/10/18 00:55:31;;;;;;;0.30;0.20;;;12.30;1.00;;;;;;5036186;28;20778;-65
2021/10/18 00:57:58;;;;;;;2.45;2.17;;;12.50;1.00;;;;;;5037715;28;20432;-62
2021/10/18 01:00:23;;;;;;;1.27;1.17;;;12.40;99.90;;;;;;5035869;28;20169;-65
2021/10/18 01:02:49;;;;;;;0.40;0.27;;;12.20;1.00;;;;;;5035917;28;20213;-65
2021/10/18 01:05:15;;;;;;;0.40;0.25;;;12.30;1.00;;;;;;5035862;28;20184;-65
2021/10/18 01:07:42;;;;;;;0.30;0.20;;;12.30;99.90;;;;;;5035873;28;20502;-65
2021/10/18 01:10:08;;;;;;;1.35;0.68;;;12.40;99.90;;;;;;5035272;28;20181;-65
2021/10/18 01:12:33;;;;;;;0.30;0.20;;;12.50;1.00;;;;;;5035814;28;20189;-65
2021/10/18 01:14:59;;;;;;;0.30;0.20;;;12.50;1.00;;;;;;5035778;28;20507;-65
2021/10/18 01:17:25;;;;;;;0.30;0.20;;;12.40;1.00;;;;;;5035774;28;20272;-64
2021/10/18 01:19:51;;;;;;;0.30;0.20;;;12.30;99.90;;;;;;5035788;28;20205;-63
2021/10/18 01:22:16;;;;;;;1.40;1.30;;;12.20;1.00;;;;;;5035610;28;20616;-62
2021/10/18 01:24:42;;;;;;;0.30;0.20;;;12.20;1.00;;;;;;5035686;28;20192;-65
2021/10/18 01:27:08;;;;;;;0.77;0.70;;;12.20;34.90;;;;;;5035463;28;20188;-65
2021/10/18 01:29:35;;;;;;;0.30;0.20;;;12.30;1.00;;;;;;5035179;28;20181;-64
2021/10/18 01:32:04;;;;;;;0.30;0.20;;;12.20;90.30;;;;;;5035507;28;20181;-65
2021/10/18 01:34:29;;;;;;;1.65;1.45;;;12.20;99.90;;;;;;5034849;28;20178;-64
2021/10/18 01:36:57;;;;;;;0.90;0.50;;;12.10;99.90;;;;;;5034587;28;20514;-63
2021/10/18 01:39:23;;;;;;;2.35;1.38;;;12.20;99.90;;;;;;5035033;28;20182;-62
2021/10/18 01:41:48;;;;;;;0.30;0.20;;;12.30;99.90;;;;;;5035295;28;20192;-63
2021/10/18 01:44:14;;;;;;;0.70;0.70;;;12.30;99.90;;;;;;5035134;28;20209;-63
2021/10/18 01:46:41;;;;;;;0.80;0.50;;;12.40;99.90;;;;;;5035196;28;20270;-63
2021/10/18 01:49:07;;;;;;;0.30;0.20;;;12.30;99.90;;;;;;5035013;28;20190;-62
2021/10/18 01:51:33;;;;;;;0.77;0.77;;;12.30;99.90;;;;;;5035135;28;20177;-62
2021/10/18 01:53:58;;;;;;;0.53;0.53;;;12.30;99.90;;;;;;5034979;28;20308;-63
2021/10/18 01:56:24;;;;;;;0.80;0.67;;;12.20;99.90;;;;;;5033986;28;20519;-63
2021/10/18 01:58:49;;;;;;;0.93;0.93;;;12.20;99.90;;;;;;5034683;28;20585;-63
2021/10/18 02:01:15;;;;;;;0.80;0.70;;;12.20;1.00;;;;;;5034906;28;20259;-62
2021/10/18 02:03:40;;;;;;;0.30;0.20;;;12.10;99.90;;;;;;5034855;28;20209;-63
2021/10/18 02:06:09;;;;;;;0.70;0.50;;;12.10;1.00;;;;;;5034873;28;20185;-65
2021/10/18 02:08:35;;;;;;;2.90;2.80;;;12.30;99.90;;;;;;5034645;28;20178;-65
2021/10/18 02:11:01;;;;;;;0.50;0.40;;;12.20;99.90;;;;;;5017303;28;20571;-65
2021/10/18 02:13:26;;;;;;;0.37;0.30;;;12.30;99.90;;;;;;5034697;28;20262;-65
2021/10/18 02:15:52;;;;;;;0.80;0.73;;;12.20;99.90;;;;;;5034711;28;20618;-65
2021/10/18 02:18:17;;;;;;;0.30;0.20;;;12.30;99.90;;;;;;5034500;28;20669;-65
2021/10/18 02:20:43;;;;;;;1.07;1.07;;;12.20;99.90;;;;;;5034565;28;20185;-65
2021/10/18 02:23:08;;;;;;;5.97;0.70;;;12.00;99.90;;;;;;5033445;28;20540;-65
2021/10/18 02:25:34;;;;;;;1.50;1.40;;;11.90;1.00;;;;;;5033476;28;20610;-63
2021/10/18 02:27:59;;;;;;;0.30;0.20;;;11.80;1.00;;;;;;5034192;28;20178;-64
2021/10/18 02:30:25;;;;;;;0.30;0.20;;;11.70;4.20;;;;;;5033281;28;20674;-64
2021/10/18 02:32:51;;;;;;;0.87;0.73;;;11.70;92.90;;;;;;5034314;28;20173;-65
2021/10/18 02:35:17;;;;;;;6.33;2.87;;;11.70;99.90;;;;;;5034158;28;20440;-64
2021/10/18 02:37:43;;;;;;;0.50;0.50;;;11.70;79.30;;;;;;5034160;28;20450;-64
2021/10/18 02:40:09;;;;;;;0.93;0.93;;;11.60;99.90;;;;;;5033077;28;20751;-64
2021/10/18 02:42:35;;;;;;;0.30;0.25;;;11.60;99.90;;;;;;5034049;28;20221;-64
2021/10/18 02:45:00;;;;;;;0.50;0.43;;;11.60;99.90;;;;;;5034374;28;20607;-66
2021/10/18 02:47:26;;;;;;;0.37;0.37;;;11.70;99.90;;;;;;5033542;28;20193;-64
2021/10/18 02:49:52;;;;;;;0.93;0.90;;;11.70;99.90;;;;;;5034205;28;20188;-64
2021/10/18 02:52:17;;;;;;;5.10;4.23;;;11.70;65.80;;;;;;5034025;28;20185;-64
2021/10/18 02:54:43;;;;;;;0.40;0.40;;;11.80;1.00;;;;;;5032998;28;20185;-65
2021/10/18 02:57:08;;;;;;;0.93;0.87;;;11.90;1.00;;;;;;5033919;28;20261;-64
2021/10/18 02:59:34;;;;;;;0.30;0.20;;;11.90;1.00;;;;;;5033796;28;20260;-65
2021/10/18 03:01:59;;;;;;;0.30;0.20;;;12.00;99.90;;;;;;5033802;28;20226;-65
2021/10/18 03:04:25;;;;;;;0.60;0.60;;;12.00;99.90;;;;;;5033776;28;20205;-65
2021/10/18 03:06:50;;;;;;;1.10;1.00;;;12.10;46.50;;;;;;5033780;28;20204;-65
2021/10/18 03:09:16;;;;;;;3.27;1.07;;;12.10;1.00;;;;;;5033431;28;20190;-65
2021/10/18 03:11:41;;;;;;;1.73;1.63;;;12.10;99.90;;;;;;5033613;28;20169;-65
2021/10/18 03:14:07;;;;;;;0.40;0.30;;;12.20;99.90;;;;;;5033709;28;20269;-62
2021/10/18 03:16:33;;;;;;;0.60;0.30;;;12.20;52.80;;;;;;5033511;28;20181;-62
2021/10/18 03:18:58;;;;;;;0.60;0.60;;;12.20;12.90;;;;;;5033952;28;20200;-65
2021/10/18 03:21:24;;;;;;;0.33;0.23;;;12.30;1.00;;;;;;5033719;28;20490;-64
2021/10/18 03:23:50;;;;;;;0.40;0.40;;;12.20;1.00;;;;;;5033585;28;20208;-64
2021/10/18 03:26:16;;;;;;;1.77;0.83;;;12.20;1.00;;;;;;5033524;28;20236;-64
2021/10/18 03:28:42;;;;;;;1.27;0.80;;;12.30;99.90;;;;;;5033416;28;20177;-64
2021/10/18 03:31:08;;;;;;;2.55;1.70;;;12.30;1.00;;;;;;5033462;28;20685;-64
2021/10/18 03:33:38;;;;;;;0.87;0.87;;;12.40;1.00;;;;;;5033478;28;20186;-64
2021/10/18 03:36:05;;;;;;;2.25;0.90;;;12.30;1.00;;;;;;5033444;28;20631;-65
2021/10/18 03:38:31;;;;;;;1.40;1.30;;;12.40;1.00;;;;;;5033124;28;20646;-64
2021/10/18 03:40:57;;;;;;;0.30;0.20;;;12.40;1.00;;;;;;5033432;28;20185;-64
2021/10/18 03:43:22;;;;;;;1.23;0.67;;;12.30;99.90;;;;;;5033276;28;20236;-64
2021/10/18 03:45:48;;;;;;;0.60;0.43;;;12.30;1.00;;;;;;5032338;28;20428;-64
2021/10/18 03:48:14;;;;;;;0.40;0.30;;;12.30;1.00;;;;;;5033019;28;20184;-64
2021/10/18 03:50:40;;;;;;;2.25;1.15;;;12.30;42.80;;;;;;5033315;28;20185;-64
2021/10/18 03:53:06;;;;;;;0.30;0.20;;;12.20;40.00;;;;;;5032401;28;20185;-64
2021/10/18 03:55:32;;;;;;;1.03;1.03;;;12.20;84.80;;;;;;5033252;28;20184;-64
2021/10/18 03:57:57;;;;;;;0.80;0.80;;;12.20;99.90;;;;;;5034464;28;20430;-64
2021/10/18 04:00:23;;;;;;;0.30;0.20;;;12.20;1.00;;;;;;5037094;28;20256;-64
2021/10/18 04:02:49;;;;;;;0.47;0.47;;;12.20;1.00;;;;;;5036943;28;20219;-64
2021/10/18 04:05:14;;;;;;;2.20;2.00;;;12.20;99.90;;;;;;5037173;28;20188;-64
2021/10/18 04:07:44;;;;;;;0.30;0.20;;;12.30;1.00;;;;;;5037038;28;20220;-65
2021/10/18 04:10:10;;;;;;;0.57;0.40;;;12.30;1.00;;;;;;5036787;28;20174;-65
2021/10/18 04:12:35;;;;;;;1.63;1.53;;;12.20;1.00;;;;;;5036692;28;20278;-66
2021/10/18 04:15:01;;;;;;;0.60;0.60;;;12.30;1.00;;;;;;5036793;28;20623;-66
2021/10/18 04:17:26;;;;;;;0.30;0.20;;;12.40;1.00;;;;;;5036141;28;20177;-62
2021/10/18 04:19:52;;;;;;;0.30;0.20;;;12.30;1.00;;;;;;5035710;28;20272;-64
2021/10/18 04:22:17;;;;;;;0.40;0.40;;;12.20;1.00;;;;;;5036725;28;20180;-65
2021/10/18 04:24:43;;;;;;;0.30;0.20;;;12.10;99.90;;;;;;5036574;28;20189;-65
2021/10/18 04:27:08;;;;;;;0.30;0.20;;;12.10;1.00;;;;;;5036524;28;20201;-64
2021/10/18 04:29:34;;;;;;;0.83;0.80;;;12.20;1.00;;;;;;5036416;28;20239;-65
2021/10/18 04:32:00;;;;;;;0.97;0.97;;;12.20;1.00;;;;;;5036677;28;20235;-65
2021/10/18 04:34:26;;;;;;;0.40;0.20;;;12.10;1.00;;;;;;5036956;28;20215;-65
2021/10/18 04:36:53;;;;;;;1.63;1.52;;;12.10;1.00;;;;;;5036429;28;20196;-65
2021/10/18 04:39:18;;;;;;;0.30;0.20;;;12.10;1.00;;;;;;5036084;28;20192;-65
2021/10/18 04:41:57;;;;;;;0.73;0.73;;;12.20;1.00;;;;;;5036380;28;20177;-65
2021/10/18 04:44:22;;;;;;;1.23;1.23;;;12.10;1.00;;;;;;5036250;28;20219;-64
2021/10/18 04:46:48;;;;;;;0.30;0.20;;;12.10;41.70;;;;;;5035524;28;20177;-63
2021/10/18 04:49:14;;;;;;;1.33;0.90;;;12.20;99.90;;;;;;5036037;28;20174;-62
2021/10/18 04:51:39;;;;;;;4.00;1.90;;;12.20;19.10;;;;;;5036492;28;20176;-62
2021/10/18 04:54:05;;;;;;;0.30;0.23;;;12.20;1.00;;;;;;5035515;28;20190;-62
2021/10/18 04:56:31;;;;;;;0.30;0.17;;;12.30;1.00;;;;;;5036670;28;20182;-62
2021/10/18 04:58:57;;;;;;;0.30;0.20;;;12.30;1.00;;;;;;5036354;28;20186;-65
2021/10/18 05:01:23;;;;;;;2.30;1.90;;;12.30;1.00;;;;;;5035938;28;20186;-65
2021/10/18 05:03:48;;;;;;;0.50;0.40;;;12.30;99.90;;;;;;5035840;28;20471;-65
2021/10/18 05:06:14;;;;;;;0.40;0.30;;;12.20;99.90;;;;;;5035780;28;20450;-65
2021/10/18 05:08:39;;;;;;;0.40;0.30;;;12.10;1.00;;;;;;5035579;28;20177;-65
2021/10/18 05:11:05;;;;;;;0.40;0.30;;;12.00;1.00;;;;;;5035398;28;20209;-65
2021/10/18 05:13:31;;;;;;;0.30;0.20;;;11.90;1.00;;;;;;5034718;28;20654;-65
2021/10/18 05:15:56;;;;;;;0.93;0.60;;;11.90;1.00;;;;;;5035708;28;20182;-64
2021/10/18 05:18:22;;;;;;;0.50;0.30;;;12.10;99.90;;;;;;5035707;28;20178;-65
2021/10/18 05:20:51;;;;;;;0.97;0.97;;;12.20;1.00;;;;;;5034496;28;20532;-65
2021/10/18 05:23:17;;;;;;;0.88;0.88;;;12.20;99.90;;;;;;5035384;28;20855;-66
2021/10/18 05:25:42;;;;;;;0.67;0.53;;;12.30;1.00;;;;;;5035360;28;20197;-65
2021/10/18 05:28:09;;;;;;;0.30;0.20;;;12.30;1.00;;;;;;5035123;28;20425;-65
2021/10/18 05:30:35;;;;;;;0.50;0.50;;;12.40;99.90;;;;;;5035305;28;20447;-65
2021/10/18 05:33:02;;;;;;;0.40;0.32;;;12.30;1.00;;;;;;5035384;28;20607;-65
2021/10/18 05:35:28;;;;;;;0.75;0.75;;;12.40;1.00;;;;;;5035565;28;20591;-66
2021/10/18 05:37:54;;;;;;;2.43;2.23;;;12.40;99.90;;;;;;5035194;28;20174;-61
2021/10/18 05:40:22;;;;;;;0.30;0.10;;;12.50;99.90;;;;;;5034942;28;20788;-62
2021/10/18 05:42:48;;;;;;;0.45;0.25;;;12.30;99.90;;;;;;5035002;28;20201;-66
2021/10/18 05:45:15;;;;;;;0.95;0.82;;;12.40;99.90;;;;;;5035569;28;20174;-65
2021/10/18 05:47:57;;;;;;;1.73;1.20;;;12.50;18.40;;;;;;5034933;28;20178;-64
2021/10/18 05:50:24;;;;;;;1.63;1.52;;;12.50;1.00;;;;;;5034665;28;20181;-65
2021/10/18 05:52:50;;;;;;;0.30;0.20;;;12.60;1.00;;;;;;5034686;28;20188;-66
2021/10/18 05:55:16;;;;;;;0.40;0.20;;;12.50;49.20;;;;;;5034795;28;20256;-65
2021/10/18 05:57:49;;;;;;;0.73;0.73;;;12.60;99.90;;;;;;5035048;28;20507;-64
2021/10/18 06:00:15;;;;;;;0.30;0.20;;;12.60;1.00;;;;;;5034672;28;20185;-67
2021/10/18 06:02:40;;;;;;;0.30;0.10;;;12.60;99.90;;;;;;5034615;28;20629;-65
2021/10/18 06:05:06;;;;;;;1.80;0.80;;;12.70;81.80;;;;;;5034834;28;20423;-65
2021/10/18 06:07:32;;;;;;;1.27;1.20;;;12.60;1.00;;;;;;5034582;28;20185;-65
2021/10/18 06:09:57;;;;;;;0.30;0.17;;;12.60;1.00;;;;;;5034078;28;20447;-65
2021/10/18 06:12:23;;;;;;;0.30;0.10;;;12.60;99.90;;;;;;5032232;28;20579;-65
2021/10/18 06:14:48;;;;;;;0.30;0.20;;;12.70;99.90;;;;;;5034242;28;20571;-65
2021/10/18 06:17:14;;;;;;;0.30;0.20;;;12.80;1.00;;;;;;5034361;28;20182;-65
2021/10/18 06:19:39;;;;;;;1.60;1.50;;;12.80;99.90;;;;;;5030834;28;20243;-65
2021/10/18 06:22:05;;;;;;;0.30;0.20;;;12.70;99.90;;;;;;5029477;28;20186;-67
2021/10/18 06:24:30;;;;;;;0.80;0.77;;;12.80;99.90;;;;;;5028225;28;20212;-68
2021/10/18 06:26:56;;;;;;;0.70;0.67;;;12.80;1.00;;;;;;5032564;28;20208;-68
2021/10/18 06:29:21;;;;;;;0.30;0.20;;;12.70;99.90;;;;;;5033986;28;20509;-68
2021/10/18 06:31:47;;;;;;;0.70;0.67;;;12.90;66.40;;;;;;5033942;28;20266;-68
2021/10/18 06:34:13;;;;;;;1.63;1.20;;;12.90;99.90;;;;;;5033937;28;20219;-67
2021/10/18 06:36:38;;;;;;;0.30;0.20;;;12.90;1.00;;;;;;5033765;28;20428;-67
2021/10/18 06:39:04;;;;;;;0.40;0.40;;;12.80;99.90;;;;;;5033185;28;20178;-68
2021/10/18 06:41:30;;;;;;;1.80;0.97;;;13.00;99.90;;;;;;5033636;28;20199;-68
2021/10/18 06:43:55;;;;;;;0.30;0.20;;;12.90;1.00;;;;;;5033766;28;20951;-68
2021/10/18 06:46:21;;;;;;;0.70;0.47;;;13.00;1.00;;;;;;5033903;28;20495;-67
2021/10/18 06:48:47;;;;;;;0.40;0.20;;;13.00;1.00;;;;;;5016445;28;20611;-68
2021/10/18 06:51:12;;;;;;;1.23;0.30;;;13.10;1.00;;;;;;5032261;28;20207;-66
2021/10/18 06:53:38;;;;;;;2.27;0.90;;;13.20;1.00;;;;;;5027900;28;20243;-63
2021/10/18 06:56:05;;;;;;;0.32;0.20;;;13.40;99.90;;;;;;5025695;28;20186;-64
2021/10/18 06:58:31;;;;;;;0.30;0.20;;;13.30;99.90;;;;;;5030930;28;20621;-68
2021/10/18 07:00:57;;;;;;;0.30;0.20;;;13.50;99.90;;;;;;5033852;28;20268;-67
2021/10/18 07:03:22;;;;;;;0.87;0.47;;;13.60;99.90;;;;;;5033525;28;20201;-68
2021/10/18 07:05:48;;;;;;;1.13;1.03;;;13.60;99.90;;;;;;5033568;28;20197;-68
2021/10/18 07:08:16;;;;;;;0.30;0.20;;;13.60;58.00;;;;;;5033168;28;20242;-67
2021/10/18 07:10:42;;;;;;;1.30;1.23;;;13.50;41.00;;;;;;5033788;28;20458;-68
2021/10/18 07:13:09;;;;;;;0.30;0.20;;;13.40;99.90;;;;;;5033558;28;20438;-67
2021/10/18 07:15:36;;;;;;;0.82;0.82;;;13.50;99.90;;;;;;5033535;28;20647;-67
2021/10/18 07:18:01;;;;;;;0.30;0.20;;;13.80;1.00;;;;;;5033190;28;20617;-67
2021/10/18 07:20:27;;;;;;;0.37;0.27;;;14.00;1.00;;;;;;5033245;28;20190;-67
2021/10/18 07:22:57;;;;;;;0.40;0.20;;;14.20;1.00;;;;;;5033159;28;20205;-66
2021/10/18 07:25:23;;;;;;;0.30;0.20;;;14.20;99.90;;;;;;5033372;28;20265;-67
2021/10/18 07:27:49;;;;;;;0.30;0.20;;;14.40;99.90;;;;;;5031099;28;20213;-65
2021/10/18 07:30:14;;;;;;;0.30;0.10;;;14.30;99.90;;;;;;5033484;28;20515;-67
2021/10/18 07:32:43;;;;;;;0.93;0.93;;;14.20;99.90;;;;;;5034492;28;20630;-67
2021/10/18 07:35:09;;;;;;;0.40;0.20;;;14.10;99.90;;;;;;5037309;28;20611;-66
2021/10/18 07:37:35;;;;;;;0.30;0.20;;;14.10;1.00;;;;;;5037430;28;20200;-65
2021/10/18 07:40:00;;;;;;;0.30;0.13;;;14.20;99.90;;;;;;5037199;28;20524;-67
2021/10/18 07:42:26;;;;;;;0.40;0.20;;;14.70;29.70;;;;;;5037641;28;20455;-67
2021/10/18 07:44:53;;;;;;;2.20;1.63;;;14.70;1.00;;;;;;5037075;28;20172;-67
2021/10/18 07:47:20;;;;;;;0.65;0.57;;;14.50;43.70;;;;;;5037122;28;20265;-68
2021/10/18 07:49:46;;;;;;;0.40;0.30;;;14.60;1.00;;;;;;5036574;28;20181;-68
2021/10/18 07:52:12;;;;;;;0.50;0.40;;;14.50;1.00;;;;;;5036993;28;20258;-68
2021/10/18 07:54:42;;;;;;;0.40;0.20;;;14.60;6.30;;;;;;5037313;28;20177;-67
2021/10/18 07:57:09;;;;;;;0.30;0.20;;;14.70;1.00;;;;;;5037079;28;20534;-68
2021/10/18 07:59:34;;;;;;;0.40;0.20;;;14.90;1.00;;;;;;5036880;28;20178;-68
2021/10/18 08:02:00;;;;;;;0.40;0.20;;;14.70;1.00;;;;;;5036893;28;20181;-68
2021/10/18 08:04:26;;;;;;;0.40;0.20;;;14.80;1.00;;;;;;5036757;28;20216;-68
2021/10/18 08:06:52;;;;;;;0.40;0.40;;;14.80;1.00;;;;;;5036929;28;20261;-68
2021/10/18 08:09:17;;;;;;;0.40;0.20;;;14.60;1.00;;;;;;5036696;28;20279;-67
2021/10/18 08:11:43;;;;;;;0.40;0.20;;;14.60;1.00;;;;;;5036712;28;20885;-67
2021/10/18 08:14:09;;;;;;;0.40;0.20;;;14.70;1.00;;;;;;5037010;28;20580;-68
2021/10/18 08:16:34;;;;;;;0.40;0.20;;;14.90;1.00;;;;;;5037039;28;20247;-66
2021/10/18 08:19:00;;;;;;;0.40;0.20;;;15.30;1.00;;;;;;5036555;28;20192;-68
2021/10/18 08:21:25;;;;;;;1.43;1.33;;;15.30;99.90;;;;;;5036854;28;20201;-67
2021/10/18 08:23:51;;;;;;;0.40;0.20;;;15.30;1.00;;;;;;5035968;28;20555;-67
2021/10/18 08:26:17;;;;;;;0.60;0.60;;;15.20;1.00;;;;;;5036730;28;20177;-66
2021/10/18 08:28:43;;;;;;;0.50;0.10;;;15.30;1.00;;;;;;5036373;28;20184;-67
2021/10/18 08:31:09;;;;;;;1.23;1.23;;;15.60;1.00;;;;;;5036788;28;20423;-66
2021/10/18 08:33:35;;;;;;;3.35;3.08;;;15.50;99.90;;;;;;5036414;28;20264;-66
2021/10/18 08:36:04;;;;;;;0.88;0.88;;;15.10;1.00;;;;;;5036546;28;20192;-67
2021/10/18 08:38:48;;;;;;;0.40;0.17;;;15.00;1.00;;;;;;5036293;28;20206;-68
2021/10/18 08:46:30;;;;;;;0.73;0.73;;;15.30;1.00;;;;;;5036968;28;20185;-67
2021/10/18 08:48:58;;;;;;;1.00;0.97;;;15.00;1.00;;;;;;5035681;28;20186;-66
2021/10/18 08:51:24;;;;;;;0.68;0.52;;;15.10;1.00;;;;;;5036145;28;20248;-67
2021/10/18 08:53:50;;;;;;;0.60;0.60;;;15.20;1.00;;;;;;5035790;28;20614;-67
2021/10/18 08:56:16;;;;;;;0.40;0.20;;;15.20;1.00;;;;;;5036053;28;20247;-68
2021/10/18 08:58:42;;;;;;;0.50;0.20;;;15.30;1.00;;;;;;5035678;28;20604;-67
2021/10/18 09:01:08;;;;;;;0.40;0.20;;;15.30;1.00;;;;;;5035655;28;20200;-67
2021/10/18 09:03:34;;;;;;;0.40;0.20;;;15.30;1.00;;;;;;5035650;28;20212;-67
2021/10/18 09:06:11;;;;;;;0.40;0.20;;;15.50;1.00;;;;;;5035648;28;20324;-67
2021/10/18 09:08:37;;;;;;;0.40;0.20;;;15.70;1.00;;;;;;5035512;28;20520;-66
2021/10/18 09:11:05;;;;;;;1.13;0.30;;;15.70;1.00;;;;;;5035900;28;20181;-67
2021/10/18 09:13:31;;;;;;;0.60;0.60;;;16.00;99.90;;;;;;5035483;28;20197;-66
2021/10/18 09:15:57;;;;;;;0.40;0.20;;;16.00;1.00;;;;;;5034941;28;20522;-66
2021/10/18 09:18:22;;;;;;;0.40;0.20;;;16.40;99.90;;;;;;5035424;28;20420;-66
2021/10/18 09:20:49;;;;;;;0.50;0.33;;;16.60;99.90;;;;;;5029268;28;20278;-67
2021/10/18 09:23:17;;;;;;;0.40;0.20;;;16.50;99.90;;;;;;5035214;28;20229;-66
2021/10/18 09:25:43;;;;;;;0.40;0.20;;;15.80;99.90;;;;;;5034888;28;20182;-66
2021/10/18 09:28:17;;;;;;;0.60;0.30;;;15.70;1.00;;;;;;5035131;28;20193;-65
2021/10/18 09:30:47;;;;;;;0.60;0.45;;;15.90;1.00;;;;;;5030574;28;20486;-66
2021/10/18 09:33:41;;;;;;;0.40;0.20;;;16.00;99.90;;;;;;5029260;28;20185;-66
2021/10/18 09:36:18;;;;;;;0.95;0.95;;;16.30;99.90;;;;;;5032254;28;20639;-66
2021/10/18 09:38:44;;;;;;;0.55;0.52;;;16.10;99.90;;;;;;5034809;28;20177;-65
2021/10/18 09:41:09;;;;;;;0.40;0.20;;;16.10;99.90;;;;;;5034745;28;20200;-66
2021/10/18 09:43:42;;;;;;;0.50;0.40;;;16.20;99.90;;;;;;5033972;28;20219;-66
2021/10/18 10:53:30;;;;;;;0.70;0.47;;;17.70;99.90;;;;;;5033994;28;20428;-68
2021/10/18 10:55:58;;;;;;;0.40;0.20;;;17.80;99.90;;;;;;5031797;28;20866;-66
2021/10/18 10:58:31;;;;;;;0.40;0.20;;;17.50;99.90;;;;;;5032954;28;20526;-66
2021/10/18 11:00:57;;;;;;;0.63;0.50;;;17.50;99.90;;;;;;5033513;28;20431;-66
2021/10/18 11:03:41;;;;;;;0.40;0.20;;;17.50;99.90;;;;;;5033652;28;20467;-66
2021/10/18 11:06:09;;;;;;;2.10;1.90;;;17.50;99.90;;;;;;5033512;28;20424;-66
2021/10/18 11:08:47;;;;;;;0.60;0.40;;;17.00;99.90;;;;;;5032560;28;20420;-66
2021/10/18 11:11:13;;;;;;;2.63;1.43;;;17.20;99.90;;;;;;5033356;28;20570;-66
2021/10/18 11:13:54;;;;;;;0.40;0.20;;;17.20;99.90;;;;;;5033787;28;20513;-66
2021/10/18 11:16:24;;;;;;;0.73;0.60;;;17.20;1.00;;;;;;5033273;28;20188;-67
2021/10/18 11:18:55;;;;;;;0.50;0.30;;;17.40;99.90;;;;;;5032830;28;20428;-66
2021/10/18 11:21:26;;;;;;;0.47;0.30;;;17.40;99.90;;;;;;5032876;28;20447;-66
2021/10/18 11:24:06;;;;;;;0.50;0.30;;;17.20;99.90;;;;;;5030175;28;20472;-66
2021/10/18 11:26:40;;;;;;;0.60;0.30;;;17.20;1.00;;;;;;5030514;28;20824;-66
2021/10/18 11:29:11;;;;;;;1.17;1.07;;;17.20;99.90;;;;;;5015154;28;20455;-64
2021/10/18 11:31:40;;;;;;;0.50;0.37;;;17.30;99.90;;;;;;5032107;28;20478;-65
2021/10/18 11:34:12;;;;;;;0.60;0.60;;;17.20;99.90;;;;;;5015305;28;20531;-64
2021/10/18 11:36:43;;;;;;;1.80;1.70;;;17.30;1.00;;;;;;5031698;28;20432;-67
2021/10/18 11:39:10;;;;;;;0.40;0.20;;;17.40;1.00;;;;;;5015562;28;20502;-67
2021/10/18 11:42:13;;;;;;;0.40;0.20;;;17.50;99.90;;;;;;5033281;28;20425;-68
2021/10/18 11:44:55;;;;;;;0.47;0.30;;;17.60;99.90;;;;;;5033044;28;20962;-65
2021/10/18 11:47:28;;;;;;;0.50;0.30;;;17.70;99.90;;;;;;5031684;28;20477;-65
2021/10/18 11:50:22;;;;;;;0.40;0.20;;;17.70;99.90;;;;;;5013847;28;20428;-64
2021/10/18 11:52:55;;;;;;;1.50;1.47;;;17.60;99.90;;;;;;5032353;28;20424;-64
2021/10/18 11:55:32;;;;;;;0.40;0.20;;;17.70;99.90;;;;;;5033792;28;20452;-66
2021/10/18 11:58:00;;;;;;;0.40;0.20;;;17.70;99.90;;;;;;5033369;28;20443;-66
2021/10/18 12:00:31;;;;;;;1.70;0.50;;;17.80;99.90;;;;;;5033827;28;20493;-64
2021/10/18 12:03:01;;;;;;;0.50;0.30;;;17.80;99.90;;;;;;5033757;28;20459;-66
2021/10/18 12:05:35;;;;;;;0.97;0.97;;;18.00;99.90;;;;;;5034337;28;20816;-65
2021/10/18 12:08:02;;;;;;;0.40;0.20;;;18.10;99.90;;;;;;5016477;28;20427;-66
2021/10/18 12:10:31;;;;;;;0.77;0.77;;;17.90;99.90;;;;;;5033703;28;20471;-65
2021/10/18 12:13:26;;;;;;;0.60;0.20;;;17.80;99.90;;;;;;5033251;28;20448;-65
2021/10/18 12:15:52;;;;;;;0.40;0.20;;;17.40;99.90;;;;;;5033596;28;20507;-66
2021/10/18 12:18:27;;;;;;;0.40;0.20;;;17.20;1.00;;;;;;5033567;28;20452;-66
2021/10/18 12:20:55;;;;;;;0.40;0.20;;;17.40;1.00;;;;;;5037453;28;20192;-66
2021/10/18 12:23:31;;;;;;;0.70;0.50;;;17.30;1.00;;;;;;5037292;28;20472;-65
2021/10/18 12:25:59;;;;;;;0.50;0.20;;;17.20;1.00;;;;;;5037151;28;20427;-65
2021/10/18 12:28:42;;;;;;;0.40;0.20;;;17.40;1.00;;;;;;5036948;28;20921;-65
2021/10/18 12:31:24;;;;;;;1.17;0.40;;;17.70;1.00;;;;;;5037234;28;20497;-66
2021/10/18 12:34:01;;;;;;;0.40;0.20;;;17.60;1.00;;;;;;5037114;28;20415;-66
2021/10/18 12:36:27;;;;;;;0.40;0.20;;;17.80;1.00;;;;;;5019861;28;20428;-67
2021/10/18 12:38:53;;;;;;;1.17;1.07;;;17.50;1.00;;;;;;5036893;28;20497;-65
2021/10/18 12:41:18;;;;;;;0.50;0.37;;;17.40;1.00;;;;;;5019246;28;20440;-65
2021/10/18 12:43:45;;;;;;;2.27;1.30;;;17.40;1.00;;;;;;5036513;28;20308;-65
2021/10/18 12:46:17;;;;;;;0.40;0.20;;;17.50;1.00;;;;;;5036442;28;20518;-65
2021/10/18 12:49:00;;;;;;;0.63;0.63;;;17.50;1.00;;;;;;5018613;28;20424;-65
2021/10/18 12:51:47;;;;;;;0.40;0.20;;;17.30;1.00;;;;;;5036149;28;20428;-63
2021/10/18 12:54:27;;;;;;;0.40;0.20;;;17.30;1.00;;;;;;5036460;28;20428;-66
2021/10/18 12:56:57;;;;;;;0.40;0.20;;;17.50;1.00;;;;;;5036476;28;20435;-66
2021/10/18 12:59:24;;;;;;;0.50;0.40;;;17.60;1.00;;;;;;5036253;28;20452;-65
2021/10/18 13:02:17;;;;;;;0.40;0.20;;;17.60;1.00;;;;;;5036391;28;20424;-64
2021/10/18 13:04:59;;;;;;;0.40;0.20;;;17.80;1.00;;;;;;5036253;28;20559;-65
2021/10/18 13:07:24;;;;;;;0.80;0.70;;;18.20;99.90;;;;;;5036188;28;20813;-65
2021/10/18 13:09:50;;;;;;;0.40;0.20;;;18.00;1.00;;;;;;5035727;28;20420;-63
2021/10/18 13:12:16;;;;;;;0.50;0.30;;;17.70;1.00;;;;;;5036105;28;20255;-65
2021/10/18 13:14:42;;;;;;;0.80;0.33;;;17.80;1.00;;;;;;5036055;28;20432;-64
2021/10/18 13:17:07;;;;;;;0.93;0.77;;;17.60;1.00;;;;;;5035831;28;20505;-63
2021/10/18 13:19:33;;;;;;;0.40;0.20;;;17.40;1.00;;;;;;5035539;28;20251;-64
2021/10/18 13:21:59;;;;;;;0.67;0.67;;;17.50;1.00;;;;;;5035792;28;20189;-64
2021/10/18 13:24:24;;;;;;;0.40;0.20;;;17.80;1.00;;;;;;5035902;28;20209;-65
2021/10/18 13:26:50;;;;;;;1.33;0.60;;;17.90;1.00;;;;;;5018489;28;20202;-64
2021/10/18 13:29:15;;;;;;;2.30;1.57;;;17.40;1.00;;;;;;5035643;28;20182;-64
2021/10/18 13:31:41;;;;;;;0.60;0.57;;;17.10;1.00;;;;;;5017607;28;20181;-65
2021/10/18 13:34:06;;;;;;;1.90;1.13;;;17.10;1.00;;;;;;5035864;28;20177;-66
2021/10/18 13:36:32;;;;;;;0.40;0.20;;;17.40;1.00;;;;;;5035852;28;20185;-64
2021/10/18 13:39:01;;;;;;;0.40;0.20;;;17.70;1.00;;;;;;5035146;28;20194;-64
2021/10/18 13:41:27;;;;;;;0.40;0.20;;;17.60;1.00;;;;;;5035854;28;20561;-65
2021/10/18 13:43:53;;;;;;;3.43;0.93;;;17.90;99.90;;;;;;5035593;28;20468;-66
2021/10/18 13:46:18;;;;;;;1.03;0.93;;;17.90;99.90;;;;;;5036060;28;20786;-66
2021/10/18 13:48:44;;;;;;;0.40;0.20;;;17.50;99.90;;;;;;5035360;28;20177;-66
2021/10/18 13:51:10;;;;;;;0.50;0.40;;;17.30;1.00;;;;;;5034966;28;20189;-65
2021/10/18 13:53:36;;;;;;;0.40;0.20;;;17.10;1.00;;;;;;5035559;28;20184;-67
2021/10/18 13:56:01;;;;;;;0.40;0.20;;;17.00;1.00;;;;;;5035374;28;20243;-65
2021/10/18 13:58:27;;;;;;;0.80;0.80;;;17.30;1.00;;;;;;5034347;28;20443;-62
2021/10/18 14:00:56;;;;;;;0.40;0.20;;;17.40;1.00;;;;;;5034985;28;20182;-67
2021/10/18 14:03:22;;;;;;;0.40;0.20;;;17.60;1.00;;;;;;5034775;28;20474;-66
2021/10/18 14:05:47;;;;;;;0.70;0.40;;;17.20;1.00;;;;;;5033931;28;20436;-63
2021/10/18 14:08:13;;;;;;;0.40;0.20;;;16.70;99.90;;;;;;5016571;28;20984;-67